createdAt,value
2023-04-28T00:00:06.436Z,98674.59
2023-04-28T00:02:55.953Z,98673.67
2023-04-28T00:05:25.314Z,98673.61
2023-04-28T00:07:53.925Z,98675.99
2023-04-28T00:10:22.237Z,98677.52
2023-04-28T00:12:50.432Z,98681.02
2023-04-28T00:15:18.800Z,98681.73
2023-04-28T00:17:47.370Z,98682.16
2023-04-28T00:20:16.860Z,98687.09
2023-04-28T00:22:45.330Z,98686.64
2023-04-28T00:25:14.696Z,98684.03
2023-04-28T00:27:42.945Z,98682.73
2023-04-28T00:30:11.571Z,98683.56
2023-04-28T00:32:39.802Z,98682.80
2023-04-28T00:35:08.554Z,98689.36
2023-04-28T00:37:37.689Z,98688.74
2023-04-28T00:40:06.860Z,98690.55
2023-04-28T00:42:35.292Z,98692.83
2023-04-28T00:45:06.370Z,98692.97
2023-04-28T00:47:37.649Z,98694.35
2023-04-28T00:50:06.830Z,98698.83
2023-04-28T00:52:35.195Z,98701.22
2023-04-28T00:55:05.103Z,98704.16
2023-04-28T00:57:33.462Z,98705.83
2023-04-28T01:00:02.513Z,98707.55
2023-04-28T01:02:31.997Z,98709.82
2023-04-28T01:05:01.634Z,98711.55
2023-04-28T01:07:30.003Z,98713.02
2023-04-28T01:09:59.239Z,98711.09
2023-04-28T01:12:31.005Z,98717.08
2023-04-28T01:15:00.264Z,98717.44
2023-04-28T01:17:29.064Z,98718.97
2023-04-28T01:19:57.512Z,98718.60
2023-04-28T01:22:25.995Z,98719.64
2023-04-28T01:24:54.258Z,98718.52
2023-04-28T01:27:23.780Z,98719.20
2023-04-28T01:29:52.215Z,98721.00
2023-04-28T01:32:20.494Z,98724.11
2023-04-28T01:34:48.813Z,98725.54
2023-04-28T01:37:19.787Z,98723.98
2023-04-28T01:39:47.956Z,98726.04
2023-04-28T01:42:17.263Z,98728.59
2023-04-28T01:44:45.307Z,98732.22
2023-04-28T01:47:13.572Z,98732.09
2023-04-28T01:49:41.906Z,98736.76
2023-04-28T01:52:14.310Z,98738.02
2023-04-28T01:54:45.314Z,98738.52
2023-04-28T01:57:17.651Z,98739.64
2023-04-28T01:59:47.793Z,98743.64
2023-04-28T02:02:19.347Z,98743.88
2023-04-28T02:04:50.651Z,98748.99
2023-04-28T02:07:21.543Z,98746.88
2023-04-28T02:09:51.025Z,98751.05
2023-04-28T02:12:22.227Z,98752.09
2023-04-28T02:14:53.537Z,98754.90
2023-04-28T02:17:24.688Z,98755.34
2023-04-28T02:19:59.096Z,98756.62
2023-04-28T02:22:32.409Z,98759.30
2023-04-28T02:25:03.499Z,98757.60
2023-04-28T02:27:38.570Z,98760.27
2023-04-28T02:30:10.190Z,98760.56
2023-04-28T02:32:41.115Z,98766.09
2023-04-28T02:35:12.521Z,98763.23
2023-04-28T02:37:43.446Z,98763.39
2023-04-28T02:40:14.813Z,98765.95
2023-04-28T02:42:46.297Z,98766.55
2023-04-28T02:45:17.146Z,98771.83
2023-04-28T02:47:48.173Z,98772.94
2023-04-28T02:50:21.188Z,98774.15
2023-04-28T02:52:52.112Z,98781.87
2023-04-28T02:55:24.398Z,98782.25
2023-04-28T02:57:55.373Z,98785.61
2023-04-28T03:00:25.132Z,98789.02
2023-04-28T03:02:56.361Z,98794.82
2023-04-28T03:05:28.255Z,98795.11
2023-04-28T03:07:59.596Z,98797.35
2023-04-28T03:10:30.822Z,98796.54
2023-04-28T03:13:01.850Z,98799.30
2023-04-28T03:15:33.750Z,98798.46
2023-04-28T03:18:05.253Z,98800.77
2023-04-28T03:20:36.710Z,98802.42
2023-04-28T03:23:08.969Z,98801.95
2023-04-28T03:25:39.914Z,98801.96
2023-04-28T03:28:11.890Z,98808.57
2023-04-28T03:30:43.824Z,98815.10
2023-04-28T03:33:14.999Z,98816.22
2023-04-28T03:35:46.054Z,98821.50
2023-04-28T03:38:17.585Z,98826.81
2023-04-28T03:40:48.705Z,98828.13
2023-04-28T03:43:19.507Z,98832.11
2023-04-28T03:46:07.542Z,98832.88
2023-04-28T03:48:38.777Z,98836.45
2023-04-28T03:51:10.223Z,98837.45
2023-04-28T03:53:41.397Z,98838.52
2023-04-28T03:56:12.501Z,98840.58
2023-04-28T03:58:43.637Z,98842.27
2023-04-28T04:01:12.439Z,98847.23
2023-04-28T04:03:41.271Z,98848.66
2023-04-28T04:06:10.123Z,98854.45
2023-04-28T04:08:40.588Z,98856.44
2023-04-28T04:11:09.004Z,98855.20
2023-04-28T04:13:38.557Z,98860.60
2023-04-28T04:16:08.680Z,98860.88
2023-04-28T04:18:38.999Z,98861.00
2023-04-28T04:21:32.087Z,98859.67
2023-04-28T04:24:02.034Z,98862.60
2023-04-28T04:26:30.386Z,98860.96
2023-04-28T04:29:00.244Z,98861.42
2023-04-28T04:31:28.714Z,98863.33
2023-04-28T04:33:58.379Z,98865.11
2023-04-28T04:36:27.005Z,98864.79
2023-04-28T04:38:56.598Z,98861.17
2023-04-28T04:41:26.975Z,98863.89
2023-04-28T04:44:06.072Z,98868.44
2023-04-28T04:46:37.733Z,98864.65
2023-04-28T04:49:05.974Z,98864.45
2023-04-28T04:51:35.570Z,98864.27
2023-04-28T04:54:06.824Z,98867.14
2023-04-28T04:56:38.049Z,98866.01
2023-04-28T04:59:08.853Z,98866.55
2023-04-28T05:01:59.187Z,98867.20
2023-04-28T05:04:29.181Z,98865.53
2023-04-28T05:07:02.945Z,98864.46
2023-04-28T05:09:38.653Z,98870.04
2023-04-28T05:12:10.844Z,98868.70
2023-04-28T05:14:39.101Z,98861.09
2023-04-28T05:17:07.257Z,98859.80
2023-04-28T05:19:39.306Z,98862.34
2023-04-28T05:22:08.003Z,98866.42
2023-04-28T05:25:01.560Z,98863.72
2023-04-28T05:27:32.540Z,98861.79
2023-04-28T05:30:04.624Z,98857.88
2023-04-28T05:32:35.923Z,98855.77
2023-04-28T05:35:07.395Z,98858.52
2023-04-28T05:37:39.948Z,98859.30
2023-04-28T05:40:11.491Z,98861.52
2023-04-28T05:42:42.777Z,98865.65
2023-04-28T05:45:14.986Z,98854.70
2023-04-28T05:47:47.627Z,98856.64
2023-04-28T05:50:17.138Z,98855.85
2023-04-28T05:57:04.489Z,98856.89
2023-04-28T06:00:12.784Z,98859.58
2023-04-28T06:11:22.307Z,98857.27
2023-04-28T06:18:12.558Z,98858.09
2023-04-28T06:21:19.594Z,98856.42
2023-04-28T06:28:10.705Z,98851.71
2023-04-28T06:31:16.596Z,98850.48
2023-04-28T06:42:24.964Z,98843.06
2023-04-28T06:53:44.903Z,98845.81
2023-04-28T07:04:43.512Z,98853.36
2023-04-28T07:19:51.542Z,98857.43
2023-04-28T07:23:03.993Z,98857.36
2023-04-28T07:29:57.184Z,98852.23
2023-04-28T07:33:04.818Z,98850.39
2023-04-28T07:44:10.923Z,98843.55
2023-04-28T07:55:17.696Z,98837.02
2023-04-28T08:06:05.501Z,98822.66
2023-04-28T08:16:53.659Z,98821.39
2023-04-28T08:23:44.534Z,98816.41
2023-04-28T08:26:14.061Z,98814.56
2023-04-28T08:33:01.953Z,98799.41
2023-04-28T08:48:23.820Z,98789.11
2023-04-28T08:55:13.605Z,98780.23
2023-04-28T09:06:06.355Z,98780.98
2023-04-28T09:21:07.051Z,98765.04
2023-04-28T09:32:19.635Z,98746.95
2023-04-28T09:52:29.702Z,98731.73
2023-04-28T09:59:18.322Z,98719.40
2023-04-28T10:06:08.626Z,98708.65
2023-04-28T10:21:33.211Z,98697.02
2023-04-28T10:24:33.317Z,98693.70
2023-04-28T10:31:23.186Z,98687.61
2023-04-28T10:38:15.656Z,98679.04
2023-04-28T10:42:04.007Z,98674.48
2023-04-28T10:53:09.008Z,98654.06
2023-04-28T11:08:33.917Z,98631.23
2023-04-28T11:15:22.875Z,98632.34
2023-04-28T11:26:11.053Z,98617.48
2023-04-28T11:33:01.994Z,98613.23
2023-04-28T11:43:46.555Z,98591.73
2023-04-28T11:47:35.828Z,98592.25
2023-04-28T12:12:08.911Z,98564.50
2023-04-28T12:19:06.916Z,98555.95
2023-04-28T12:23:00.160Z,98552.45
2023-04-28T12:29:52.930Z,98543.61
2023-04-28T12:33:03.001Z,98537.35
2023-04-28T12:39:58.922Z,98525.21
2023-04-28T12:57:18.427Z,98508.10
2023-04-28T12:59:48.335Z,98506.50
2023-04-28T13:02:19.981Z,98503.92
2023-04-28T13:04:52.279Z,98502.46
2023-04-28T13:07:23.435Z,98496.32
2023-04-28T13:09:52.922Z,98498.02
2023-04-28T13:12:24.347Z,98489.72
2023-04-28T13:14:55.082Z,98485.83
2023-04-28T13:17:27.397Z,98483.82
2023-04-28T13:19:58.488Z,98481.39
2023-04-28T13:22:29.534Z,98474.58
2023-04-28T13:25:00.547Z,98470.08
2023-04-28T13:27:31.450Z,98466.63
2023-04-28T13:30:04.206Z,98473.60
2023-04-28T13:33:29.652Z,98468.98
2023-04-28T13:36:02.713Z,98461.15
2023-04-28T13:38:34.328Z,98460.86
2023-04-28T13:41:05.543Z,98456.02
2023-04-28T13:43:36.650Z,98451.08
2023-04-28T13:46:09.288Z,98448.95
2023-04-28T13:53:03.123Z,98445.00
2023-04-28T13:55:32.340Z,98440.80
2023-04-28T14:10:57.258Z,98434.59
2023-04-28T14:21:29.168Z,98422.30
2023-04-28T14:28:17.939Z,98426.02
2023-04-28T14:31:23.648Z,98426.05
2023-04-28T14:38:12.950Z,98422.65
2023-04-28T14:50:23.855Z,98417.82
2023-04-28T15:01:36.921Z,98410.82
2023-04-28T15:09:28.356Z,98407.08
2023-04-28T15:20:38.319Z,98404.83
2023-04-28T15:27:29.112Z,98401.83
2023-04-28T15:42:21.889Z,98395.68
2023-04-28T15:57:41.943Z,98398.16
2023-04-28T16:00:42.362Z,98400.50
2023-04-28T16:11:27.855Z,98390.38
2023-04-28T16:15:48.125Z,98392.34
2023-04-28T18:26:02.129Z,98496.88
2023-04-28T18:28:34.061Z,98512.73
2023-04-28T18:31:06.448Z,98515.28
2023-04-28T18:33:37.768Z,98513.08
2023-04-28T18:36:10.763Z,98514.70
2023-04-28T18:39:11.928Z,98519.60
2023-04-28T18:41:49.270Z,98528.26
2023-04-28T18:44:21.890Z,98532.79
2023-04-28T18:47:36.165Z,98535.70
2023-04-28T18:50:08.887Z,98535.58
2023-04-28T18:52:39.093Z,98529.45
2023-04-28T18:55:10.595Z,98528.95
2023-04-28T18:57:42.258Z,98530.65
2023-04-28T19:00:13.980Z,98529.67
2023-04-28T19:03:09.993Z,98531.89
2023-04-28T19:05:48.623Z,98537.91
2023-04-28T19:08:20.708Z,98539.61
2023-04-28T19:10:51.898Z,98535.19
2023-04-28T19:13:23.428Z,98532.70
2023-04-28T19:16:16.205Z,98538.44
2023-04-28T19:18:49.107Z,98542.70
2023-04-28T19:21:20.956Z,98536.34
2023-04-28T19:23:52.206Z,98534.36
2023-04-28T19:39:43.797Z,98543.14
2023-04-28T19:42:13.386Z,98554.02
2023-04-28T19:44:44.315Z,98553.69
2023-04-28T19:47:13.300Z,98550.54
2023-04-28T19:49:44.352Z,98548.33
2023-04-28T19:52:14.184Z,98545.77
2023-04-28T19:54:43.728Z,98546.80
2023-04-28T19:57:14.486Z,98542.52
2023-04-28T19:59:41.654Z,98545.99
2023-04-28T20:02:12.489Z,98552.44
2023-04-28T20:04:42.627Z,98553.35
2023-04-28T20:07:12.818Z,98554.18
2023-04-28T20:09:43.913Z,98549.41
2023-04-28T20:12:38.415Z,98551.33
2023-04-28T20:15:08.959Z,98556.64
2023-04-28T20:17:44.487Z,98561.68
2023-04-28T20:20:35.740Z,98555.95
2023-04-28T20:23:06.168Z,98550.59
2023-04-28T20:26:44.600Z,98546.05
2023-04-28T20:36:03.439Z,98543.34
2023-04-28T20:38:34.226Z,98543.27
2023-04-28T20:41:04.108Z,98543.60
2023-04-28T20:43:33.970Z,98547.81
2023-04-28T20:46:13.340Z,98546.95
2023-04-28T20:48:43.236Z,98551.52
2023-04-28T20:51:13.748Z,98550.92
2023-04-28T20:53:43.725Z,98545.92
2023-04-28T20:56:13.743Z,98549.70
2023-04-28T20:58:43.544Z,98547.98
2023-04-28T21:01:13.564Z,98553.94
2023-04-28T21:03:43.966Z,98557.59
2023-04-28T21:06:14.139Z,98559.45
2023-04-28T21:09:06.583Z,98563.23
2023-04-28T21:11:59.208Z,98566.33
2023-04-28T21:14:29.102Z,98567.27
2023-04-28T21:17:06.568Z,98570.70
2023-04-28T21:19:36.506Z,98571.37
2023-04-28T21:22:04.944Z,98572.75
2023-04-28T21:24:34.300Z,98572.98
2023-04-28T21:27:05.410Z,98576.87
2023-04-28T21:29:35.324Z,98576.41
2023-04-28T21:32:04.777Z,98583.52
2023-04-28T21:34:34.604Z,98584.53
2023-04-28T21:37:04.277Z,98589.45
2023-04-28T21:39:33.754Z,98589.67
2023-04-28T21:42:04.202Z,98588.96
2023-04-28T21:44:34.191Z,98586.59
2023-04-28T21:47:24.037Z,98589.45
2023-04-28T21:49:53.645Z,98589.24
2023-04-28T21:52:23.165Z,98587.33
2023-04-28T21:54:53.242Z,98588.04
2023-04-28T21:57:25.956Z,98594.66
2023-04-28T21:59:53.927Z,98594.73
2023-04-28T22:02:24.519Z,98591.59
2023-04-28T22:04:54.170Z,98600.91
2023-04-28T22:07:25.150Z,98603.38
2023-04-28T22:09:54.553Z,98607.89
2023-04-28T22:12:24.417Z,98608.69
2023-04-28T22:14:54.257Z,98607.21
2023-04-28T22:17:23.864Z,98605.46
2023-04-28T22:19:53.381Z,98610.03
2023-04-28T22:22:23.868Z,98608.21
2023-04-28T22:24:53.680Z,98610.43
2023-04-28T22:27:23.279Z,98610.09
2023-04-28T22:29:53.416Z,98620.48
2023-04-28T22:32:23.125Z,98620.28
2023-04-28T22:34:53.196Z,98621.27
2023-04-28T22:37:22.869Z,98619.87
2023-04-28T22:39:52.729Z,98620.13
2023-04-28T22:42:23.035Z,98616.95
2023-04-28T22:44:52.877Z,98617.45
2023-04-28T22:47:22.587Z,98617.24
2023-04-28T22:49:52.643Z,98617.73
2023-04-28T22:52:23.193Z,98616.26
2023-04-28T22:54:53.219Z,98612.75
2023-04-28T22:57:22.844Z,98610.21
2023-04-28T22:59:50.337Z,98606.72
2023-04-28T23:02:20.331Z,98607.73
2023-04-28T23:04:50.543Z,98607.29
2023-04-28T23:07:20.632Z,98606.79
2023-04-28T23:09:50.551Z,98595.91
2023-04-28T23:12:21.317Z,98595.30
2023-04-28T23:14:51.264Z,98593.77
2023-04-28T23:17:21.145Z,98588.73
2023-04-28T23:19:51.229Z,98586.98
2023-04-28T23:22:20.976Z,98586.80
2023-04-28T23:24:51.249Z,98582.93
2023-04-28T23:27:21.054Z,98581.15
2023-04-28T23:29:51.077Z,98576.80
2023-04-28T23:32:21.030Z,98578.84
2023-04-28T23:34:50.497Z,98577.36
2023-04-28T23:37:20.292Z,98580.58
2023-04-28T23:39:50.381Z,98581.21
2023-04-28T23:42:20.362Z,98578.27
2023-04-28T23:44:51.971Z,98578.73
2023-04-28T23:47:22.399Z,98578.17
2023-04-28T23:49:52.221Z,98580.23
2023-04-28T23:52:22.178Z,98582.80
2023-04-28T23:54:51.827Z,98583.89
2023-04-28T23:57:21.469Z,98582.33
2023-04-28T23:59:48.306Z,98587.28
